Time,TemperatureF,DewpointF,PressureIn,WindDirection,WindDirectionDegrees,WindSpeedMPH,WindSpeedGustMPH,Humidity,HourlyPrecipIn,Conditions,Clouds,dailyrainin,SoftwareType,DateUTC
2013-03-27 00:00:00,30.9,25.2,29.82,SSW,203,0.0,0.0,79,0.00,,,0.00,meteohub,2013-03-27 04:00:00,
2013-03-27 00:01:00,31.1,25.3,29.81,SSW,203,0.0,0.0,79,0.00,,,0.00,meteohub,2013-03-27 04:01:00,
2013-03-27 00:02:00,31.1,25.0,29.81,SSW,201,0.0,0.0,78,0.00,,,0.00,meteohub,2013-03-27 04:02:00,
2013-03-27 00:07:00,31.3,25.0,29.81,SSW,203,0.0,0.0,77,0.00,,,0.00,meteohub,2013-03-27 04:07:00,
2013-03-27 00:12:00,31.6,25.0,29.81,SE,131,0.0,0.0,76,0.00,,,0.00,meteohub,2013-03-27 04:12:00,
2013-03-27 00:17:00,31.8,24.4,29.81,ESE,103,0.0,0.0,74,0.00,,,0.00,meteohub,2013-03-27 04:17:00,
2013-03-27 00:22:00,32.5,24.4,29.81,ESE,103,0.0,1.0,72,0.00,,,0.00,meteohub,2013-03-27 04:22:00,
2013-03-27 00:27:00,32.7,24.4,29.81,North,4,0.0,1.0,71,0.00,,,0.00,meteohub,2013-03-27 04:27:00,
2013-03-27 00:32:00,32.9,24.3,29.81,NNE,23,0.0,1.0,70,0.00,,,0.00,meteohub,2013-03-27 04:32:00,
2013-03-27 00:37:00,32.7,24.4,29.81,NNE,30,0.0,1.0,71,0.00,,,0.00,meteohub,2013-03-27 04:37:00,
2013-03-27 00:42:00,32.9,24.6,29.81,NNE,26,0.0,1.0,71,0.00,,,0.00,meteohub,2013-03-27 04:42:00,
2013-03-27 00:47:00,33.1,24.1,29.82,NNE,23,0.0,1.0,69,0.00,,,0.00,meteohub,2013-03-27 04:47:00,
2013-03-27 00:52:00,33.3,24.3,29.81,NNE,23,0.0,1.0,69,0.00,,,0.00,meteohub,2013-03-27 04:52:00,
2013-03-27 00:57:00,33.1,24.1,29.81,NNE,25,0.0,1.0,69,0.00,,,0.00,meteohub,2013-03-27 04:57:00,
2013-03-27 01:02:00,32.4,24.1,29.81,NNE,25,0.0,0.0,71,0.00,,,0.00,meteohub,2013-03-27 05:02:00,
2013-03-27 01:07:00,31.6,23.7,29.81,NNE,30,0.0,0.0,72,0.00,,,0.00,meteohub,2013-03-27 05:07:00,
2013-03-27 01:12:00,31.3,24.3,29.82,NNE,30,0.0,1.0,75,0.00,,,0.00,meteohub,2013-03-27 05:12:00,
2013-03-27 01:18:00,31.1,25.0,29.82,NNE,30,0.0,1.0,78,0.00,,,0.00,meteohub,2013-03-27 05:18:00,
2013-03-27 01:23:00,30.9,25.7,29.81,NNE,30,0.0,1.0,81,0.00,,,0.00,meteohub,2013-03-27 05:23:00,
2013-03-27 01:28:00,30.6,25.3,29.82,NNE,30,0.0,0.0,81,0.00,,,0.00,meteohub,2013-03-27 05:28:00,
2013-03-27 01:33:00,30.4,25.3,29.82,NNE,30,0.0,0.0,81,0.00,,,0.00,meteohub,2013-03-27 05:33:00,
2013-03-27 01:38:00,30.0,25.0,29.81,NNE,30,0.0,0.0,81,0.00,,,0.00,meteohub,2013-03-27 05:38:00,
2013-03-27 01:43:00,29.8,24.4,29.81,NNE,30,0.0,0.0,80,0.00,,,0.00,meteohub,2013-03-27 05:43:00,
2013-03-27 01:48:00,29.8,23.5,29.82,NNE,30,0.0,0.0,77,0.00,,,0.00,meteohub,2013-03-27 05:48:00,
2013-03-27 01:53:00,29.8,23.2,29.81,NNE,30,0.0,0.0,76,0.00,,,0.00,meteohub,2013-03-27 05:53:00,
2013-03-27 01:58:00,29.7,23.0,29.82,NNE,30,0.0,0.0,76,0.00,,,0.00,meteohub,2013-03-27 05:58:00,
2013-03-27 02:03:00,29.7,23.0,29.82,NNE,30,0.0,0.0,76,0.00,,,0.00,meteohub,2013-03-27 06:03:00,
2013-03-27 02:08:00,29.7,23.0,29.82,NNE,30,0.0,0.0,76,0.00,,,0.00,meteohub,2013-03-27 06:08:00,
2013-03-27 02:13:00,29.5,22.8,29.82,NNE,30,0.0,0.0,76,0.00,,,0.00,meteohub,2013-03-27 06:13:00,
2013-03-27 02:18:00,28.9,22.3,29.81,NNE,30,0.0,0.0,76,0.00,,,0.00,meteohub,2013-03-27 06:18:00,
2013-03-27 02:23:00,28.6,22.3,29.81,NNE,30,0.0,0.0,77,0.00,,,0.00,meteohub,2013-03-27 06:23:00,
2013-03-27 02:28:00,28.4,22.5,29.81,NNE,30,0.0,0.0,78,0.00,,,0.00,meteohub,2013-03-27 06:28:00,
2013-03-27 02:33:00,28.4,22.5,29.81,NNE,30,0.0,0.0,78,0.00,,,0.00,meteohub,2013-03-27 06:33:00,
2013-03-27 02:38:00,28.6,22.6,29.81,NNE,30,0.0,0.0,78,0.00,,,0.00,meteohub,2013-03-27 06:38:00,
2013-03-27 02:43:00,28.4,22.6,29.81,NNE,30,0.0,0.0,79,0.00,,,0.00,meteohub,2013-03-27 06:43:00,
2013-03-27 02:48:00,28.2,22.6,29.81,NNE,30,0.0,0.0,79,0.00,,,0.00,meteohub,2013-03-27 06:48:00,
2013-03-27 02:53:00,28.2,22.3,29.81,NNE,30,0.0,0.0,78,0.00,,,0.00,meteohub,2013-03-27 06:53:00,
2013-03-27 02:58:00,28.6,22.6,29.81,NNE,30,0.0,0.0,78,0.00,,,0.00,meteohub,2013-03-27 06:58:00,
2013-03-27 03:03:00,28.9,22.3,29.81,NNE,30,1.0,0.0,76,0.00,,,0.00,meteohub,2013-03-27 07:03:00,
2013-03-27 03:08:00,29.8,22.8,29.81,NNE,29,0.0,1.0,75,0.00,,,0.00,meteohub,2013-03-27 07:08:00,
2013-03-27 03:13:00,30.6,22.6,29.81,NNW,338,0.0,1.0,72,0.00,,,0.00,meteohub,2013-03-27 07:13:00,
2013-03-27 03:18:00,30.9,22.6,29.81,NNW,342,0.0,2.0,71,0.00,,,0.00,meteohub,2013-03-27 07:18:00,
2013-03-27 03:23:00,31.5,22.8,29.81,North,349,0.0,2.0,70,0.00,,,0.00,meteohub,2013-03-27 07:23:00,
2013-03-27 03:28:00,31.6,22.6,29.81,NNE,16,0.0,2.0,69,0.00,,,0.00,meteohub,2013-03-27 07:28:00,
2013-03-27 03:33:00,32.2,22.8,29.81,NNW,328,0.0,2.0,68,0.00,,,0.00,meteohub,2013-03-27 07:33:00,
2013-03-27 03:38:00,32.4,22.6,29.81,NW,318,0.0,2.0,67,0.00,,,0.00,meteohub,2013-03-27 07:38:00,
2013-03-27 03:43:00,32.5,22.5,29.81,WNW,300,0.0,2.0,66,0.00,,,0.00,meteohub,2013-03-27 07:43:00,
2013-03-27 03:48:00,32.5,22.5,29.81,NW,310,0.0,2.0,66,0.00,,,0.00,meteohub,2013-03-27 07:48:00,
2013-03-27 03:53:00,32.5,22.5,29.81,WNW,288,0.0,1.0,66,0.00,,,0.00,meteohub,2013-03-27 07:53:00,
2013-03-27 03:59:00,32.4,22.3,29.81,West,280,0.0,1.0,66,0.00,,,0.00,meteohub,2013-03-27 07:59:00,
2013-03-27 04:04:00,32.4,22.6,29.81,WNW,291,0.0,1.0,67,0.00,,,0.00,meteohub,2013-03-27 08:04:00,
2013-03-27 04:09:00,31.8,22.1,29.81,WNW,291,0.0,1.0,67,0.00,,,0.00,meteohub,2013-03-27 08:09:00,
2013-03-27 04:14:00,32.2,22.5,29.81,WNW,294,0.0,1.0,67,0.00,,,0.00,meteohub,2013-03-27 08:14:00,
2013-03-27 04:19:00,32.2,22.1,29.81,WNW,290,1.0,2.0,66,0.00,,,0.00,meteohub,2013-03-27 08:19:00,
2013-03-27 04:24:00,32.0,22.3,29.81,NW,324,0.0,2.0,67,0.00,,,0.00,meteohub,2013-03-27 08:24:00,
2013-03-27 04:29:00,31.6,21.9,29.81,NW,325,0.0,2.0,67,0.00,,,0.00,meteohub,2013-03-27 08:29:00,
2013-03-27 04:34:00,31.3,21.9,29.81,NNW,340,0.0,1.0,68,0.00,,,0.00,meteohub,2013-03-27 08:34:00,
2013-03-27 04:39:00,31.5,22.1,29.81,NW,310,0.0,1.0,68,0.00,,,0.00,meteohub,2013-03-27 08:39:00,
2013-03-27 04:44:00,31.6,21.9,29.81,WNW,297,0.0,1.0,67,0.00,,,0.00,meteohub,2013-03-27 08:44:00,
2013-03-27 04:49:00,32.0,22.3,29.81,North,349,0.0,1.0,67,0.00,,,0.00,meteohub,2013-03-27 08:49:00,
2013-03-27 04:54:00,32.2,22.5,29.81,NW,322,0.0,2.0,67,0.00,,,0.00,meteohub,2013-03-27 08:54:00,
2013-03-27 04:59:00,32.2,22.5,29.81,NW,310,0.0,2.0,67,0.00,,,0.00,meteohub,2013-03-27 08:59:00,
2013-03-27 05:04:00,32.4,22.3,29.81,WNW,284,0.0,2.0,66,0.00,,,0.00,meteohub,2013-03-27 09:04:00,
2013-03-27 05:09:00,32.0,22.6,29.81,SW,232,0.0,3.0,68,0.00,,,0.00,meteohub,2013-03-27 09:09:00,
2013-03-27 05:14:00,31.5,22.8,29.81,SSE,155,0.0,2.0,70,0.00,,,0.00,meteohub,2013-03-27 09:14:00,
2013-03-27 05:19:00,31.1,22.8,29.81,SSE,150,0.0,2.0,71,0.00,,,0.00,meteohub,2013-03-27 09:19:00,
2013-03-27 05:24:00,30.7,23.2,29.81,South,176,0.0,1.0,73,0.00,,,0.00,meteohub,2013-03-27 09:24:00,
2013-03-27 05:29:00,30.6,22.6,29.82,West,281,0.0,1.0,72,0.00,,,0.00,meteohub,2013-03-27 09:29:00,
2013-03-27 05:34:00,30.6,22.6,29.82,West,266,0.0,1.0,72,0.00,,,0.00,meteohub,2013-03-27 09:34:00,
2013-03-27 05:39:00,30.6,22.6,29.82,SE,145,0.0,1.0,72,0.00,,,0.00,meteohub,2013-03-27 09:39:00,
2013-03-27 05:44:00,30.4,22.5,29.82,WSW,255,0.0,1.0,72,0.00,,,0.00,meteohub,2013-03-27 09:44:00,
2013-03-27 05:49:00,30.7,22.8,29.82,WNW,288,0.0,1.0,72,0.00,,,0.00,meteohub,2013-03-27 09:49:00,
2013-03-27 05:54:00,30.6,23.0,29.82,SW,222,0.0,1.0,73,0.00,,,0.00,meteohub,2013-03-27 09:54:00,
2013-03-27 05:59:00,30.6,22.6,29.82,NNW,336,0.0,1.0,72,0.00,,,0.00,meteohub,2013-03-27 09:59:00,
2013-03-27 06:04:00,30.4,22.5,29.82,ENE,71,0.0,1.0,72,0.00,,,0.00,meteohub,2013-03-27 10:04:00,
2013-03-27 06:09:00,30.6,22.6,29.82,NW,314,0.0,1.0,72,0.00,,,0.00,meteohub,2013-03-27 10:09:00,
2013-03-27 06:14:00,30.6,22.3,29.82,NNE,25,0.0,2.0,71,0.00,,,0.00,meteohub,2013-03-27 10:14:00,
2013-03-27 06:19:00,30.7,22.5,29.82,NW,324,1.0,2.0,71,0.00,,,0.00,meteohub,2013-03-27 10:19:00,
2013-03-27 06:24:00,30.9,22.3,29.82,NNW,335,0.0,2.0,70,0.00,,,0.00,meteohub,2013-03-27 10:24:00,
2013-03-27 06:29:00,31.5,22.5,29.82,NW,308,1.0,4.0,69,0.00,,,0.00,meteohub,2013-03-27 10:29:00,
2013-03-27 06:34:00,31.6,22.6,29.82,NW,314,1.0,4.0,69,0.00,,,0.00,meteohub,2013-03-27 10:34:00,
2013-03-27 06:39:00,31.8,22.5,29.83,NW,310,0.0,6.0,68,0.00,,,0.00,meteohub,2013-03-27 10:39:00,
2013-03-27 06:44:00,31.8,22.5,29.83,NNW,334,0.0,6.0,68,0.00,,,0.00,meteohub,2013-03-27 10:44:00,
2013-03-27 06:49:00,32.2,22.8,29.83,NW,320,1.0,4.0,68,0.00,,,0.00,meteohub,2013-03-27 10:49:00,
2013-03-27 06:54:00,32.4,22.6,29.83,NNE,26,2.0,6.0,67,0.00,,,0.00,meteohub,2013-03-27 10:54:00,
2013-03-27 06:59:00,32.5,22.8,29.83,WNW,296,2.0,6.0,67,0.00,,,0.00,meteohub,2013-03-27 10:59:00,
2013-03-27 07:04:00,32.7,23.0,29.84,NNE,20,1.0,5.0,67,0.00,,,0.00,meteohub,2013-03-27 11:04:00,
2013-03-27 07:09:00,32.9,22.8,29.84,NW,314,1.0,5.0,66,0.00,,,0.00,meteohub,2013-03-27 11:09:00,
2013-03-27 07:14:00,33.1,23.0,29.84,WNW,290,2.0,4.0,66,0.00,,,0.00,meteohub,2013-03-27 11:14:00,
2013-03-27 07:19:00,33.3,23.2,29.84,WNW,300,0.0,4.0,66,0.00,,,0.00,meteohub,2013-03-27 11:19:00,
2013-03-27 07:24:00,33.3,23.2,29.84,WNW,300,3.0,6.0,66,0.00,,,0.00,meteohub,2013-03-27 11:24:00,
2013-03-27 07:29:00,33.4,23.4,29.84,WNW,297,0.0,6.0,66,0.00,,,0.00,meteohub,2013-03-27 11:29:00,
2013-03-27 07:34:00,33.8,23.7,29.84,NW,314,1.0,6.0,66,0.00,,,0.00,meteohub,2013-03-27 11:34:00,
2013-03-27 07:39:00,34.2,23.5,29.84,WNW,293,4.0,8.0,65,0.00,,,0.00,meteohub,2013-03-27 11:39:00,
2013-03-27 07:44:00,34.3,23.4,29.84,NW,323,4.0,10.0,64,0.00,,,0.00,meteohub,2013-03-27 11:44:00,
2013-03-27 07:49:00,34.7,23.7,29.84,NW,305,2.0,10.0,64,0.00,,,0.00,meteohub,2013-03-27 11:49:00,
2013-03-27 07:54:00,34.9,23.5,29.85,NW,308,3.0,11.0,63,0.00,,,0.00,meteohub,2013-03-27 11:54:00,
2013-03-27 07:59:00,35.2,23.9,29.85,NW,310,5.0,11.0,63,0.00,,,0.00,meteohub,2013-03-27 11:59:00,
2013-03-27 08:04:00,35.4,24.1,29.85,WNW,286,2.0,11.0,63,0.00,,,0.00,meteohub,2013-03-27 12:04:00,
2013-03-27 08:09:00,35.8,24.1,29.85,NW,304,5.0,9.0,62,0.00,,,0.00,meteohub,2013-03-27 12:09:00,
2013-03-27 08:14:00,36.1,24.4,29.85,NNW,344,0.0,8.0,62,0.00,,,0.00,meteohub,2013-03-27 12:14:00,
2013-03-27 08:19:00,36.7,24.4,29.85,WNW,290,1.0,6.0,61,0.00,,,0.00,meteohub,2013-03-27 12:19:00,
2013-03-27 08:24:00,37.0,24.8,29.85,NNW,340,5.0,7.0,61,0.00,,,0.00,meteohub,2013-03-27 12:24:00,
2013-03-27 08:29:00,37.6,25.0,29.85,WNW,300,4.0,7.0,60,0.00,,,0.00,meteohub,2013-03-27 12:29:00,
2013-03-27 08:35:00,38.1,25.0,29.85,West,281,3.0,7.0,59,0.00,,,0.00,meteohub,2013-03-27 12:35:00,
2013-03-27 08:40:00,38.7,25.2,29.85,WNW,285,1.0,6.0,58,0.00,,,0.00,meteohub,2013-03-27 12:40:00,
2013-03-27 08:45:00,39.2,25.7,29.85,NNW,333,3.0,7.0,58,0.00,,,0.00,meteohub,2013-03-27 12:45:00,
2013-03-27 08:50:00,39.7,25.3,29.85,NNW,328,5.0,8.0,56,0.00,,,0.00,meteohub,2013-03-27 12:50:00,
2013-03-27 08:55:00,40.5,25.2,29.85,NNW,330,8.0,11.0,54,0.00,,,0.00,meteohub,2013-03-27 12:55:00,
2013-03-27 09:00:00,40.6,24.8,29.85,NW,318,6.0,11.0,53,0.00,,,0.00,meteohub,2013-03-27 13:00:00,
2013-03-27 09:05:00,41.4,25.5,29.85,North,349,2.0,13.0,53,0.00,,,0.00,meteohub,2013-03-27 13:05:00,
2013-03-27 09:10:00,41.7,25.0,29.85,NW,324,5.0,13.0,51,0.00,,,0.00,meteohub,2013-03-27 13:10:00,
2013-03-27 09:15:00,42.3,25.3,29.85,WNW,297,8.0,13.0,51,0.00,,,0.00,meteohub,2013-03-27 13:15:00,
2013-03-27 09:20:00,42.4,25.2,29.84,WNW,298,7.0,12.0,50,0.00,,,0.00,meteohub,2013-03-27 13:20:00,
2013-03-27 09:25:00,43.0,25.2,29.84,NNW,330,9.0,12.0,49,0.00,,,0.00,meteohub,2013-03-27 13:25:00,
2013-03-27 09:30:00,43.3,25.5,29.85,West,274,3.0,14.0,49,0.00,,,0.00,meteohub,2013-03-27 13:30:00,
2013-03-27 09:35:00,43.7,25.3,29.85,WNW,297,6.0,14.0,48,0.00,,,0.00,meteohub,2013-03-27 13:35:00,
2013-03-27 09:40:00,44.1,25.2,29.85,NW,322,6.0,14.0,47,0.00,,,0.00,meteohub,2013-03-27 13:40:00,
2013-03-27 09:45:00,44.2,25.3,29.84,West,279,3.0,14.0,47,0.00,,,0.00,meteohub,2013-03-27 13:45:00,
2013-03-27 09:50:00,44.2,25.3,29.84,NW,318,5.0,12.0,47,0.00,,,0.00,meteohub,2013-03-27 13:50:00,
2013-03-27 09:55:00,45.0,26.4,29.84,WNW,285,1.0,13.0,48,0.00,,,0.00,meteohub,2013-03-27 13:55:00,
2013-03-27 10:00:00,45.3,25.2,29.84,WNW,302,11.0,13.0,45,0.00,,,0.00,meteohub,2013-03-27 14:00:00,
2013-03-27 10:05:00,45.7,26.1,29.83,WNW,293,5.0,13.0,46,0.00,,,0.00,meteohub,2013-03-27 14:05:00,
2013-03-27 10:10:00,46.0,25.3,29.84,North,358,9.0,11.0,44,0.00,,,0.00,meteohub,2013-03-27 14:10:00,
2013-03-27 10:15:00,46.0,25.3,29.83,NNW,338,8.0,13.0,44,0.00,,,0.00,meteohub,2013-03-27 14:15:00,
2013-03-27 10:20:00,46.8,26.1,29.83,WNW,288,7.0,13.0,44,0.00,,,0.00,meteohub,2013-03-27 14:20:00,
2013-03-27 10:25:00,46.9,25.5,29.83,NW,315,6.0,13.0,43,0.00,,,0.00,meteohub,2013-03-27 14:25:00,
2013-03-27 10:30:00,47.1,25.7,29.83,NNW,344,6.0,13.0,43,0.00,,,0.00,meteohub,2013-03-27 14:30:00,
2013-03-27 10:35:00,47.5,26.1,29.83,WNW,294,8.0,12.0,43,0.00,,,0.00,meteohub,2013-03-27 14:35:00,
2013-03-27 10:40:00,47.3,25.9,29.83,NNW,337,1.0,11.0,43,0.00,,,0.00,meteohub,2013-03-27 14:40:00,
2013-03-27 10:45:00,47.8,26.4,29.83,WNW,285,5.0,11.0,43,0.00,,,0.00,meteohub,2013-03-27 14:45:00,
2013-03-27 10:50:00,47.8,25.3,29.83,NNW,327,4.0,14.0,41,0.00,,,0.00,meteohub,2013-03-27 14:50:00,
2013-03-27 10:55:00,48.4,25.2,29.83,NW,307,3.0,14.0,40,0.00,,,0.00,meteohub,2013-03-27 14:55:00,
2013-03-27 11:00:00,48.2,25.0,29.83,NW,323,5.0,14.0,40,0.00,,,0.00,meteohub,2013-03-27 15:00:00,
2013-03-27 11:05:00,48.2,24.4,29.83,NW,322,7.0,18.0,39,0.00,,,0.00,meteohub,2013-03-27 15:05:00,
2013-03-27 11:10:00,48.2,24.4,29.82,WNW,293,8.0,18.0,39,0.00,,,0.00,meteohub,2013-03-27 15:10:00,
2013-03-27 11:15:00,48.6,24.1,29.82,NW,321,7.0,18.0,38,0.00,,,0.00,meteohub,2013-03-27 15:15:00,
2013-03-27 11:20:00,48.6,24.8,29.82,WNW,293,4.0,16.0,39,0.00,,,0.00,meteohub,2013-03-27 15:20:00,
2013-03-27 11:25:00,48.9,25.0,29.82,North,352,3.0,16.0,39,0.00,,,0.00,meteohub,2013-03-27 15:25:00,
2013-03-27 11:31:00,49.5,25.0,29.82,NW,311,8.0,16.0,38,0.00,,,0.00,meteohub,2013-03-27 15:31:00,
2013-03-27 11:36:00,49.5,24.3,29.81,NNW,345,8.0,16.0,37,0.00,,,0.00,meteohub,2013-03-27 15:36:00,
2013-03-27 11:41:00,49.5,25.0,29.81,NW,307,11.0,12.0,38,0.00,,,0.00,meteohub,2013-03-27 15:41:00,
2013-03-27 11:46:00,49.6,24.4,29.81,NNW,339,7.0,16.0,37,0.00,,,0.00,meteohub,2013-03-27 15:46:00,
2013-03-27 11:51:00,49.6,24.4,29.81,NW,323,8.0,17.0,37,0.00,,,0.00,meteohub,2013-03-27 15:51:00,
2013-03-27 11:56:00,50.0,24.1,29.81,WNW,300,5.0,17.0,36,0.00,,,0.00,meteohub,2013-03-27 15:56:00,
2013-03-27 12:01:00,49.8,24.6,29.81,WNW,293,7.0,17.0,37,0.00,,,0.00,meteohub,2013-03-27 16:01:00,
2013-03-27 12:07:00,50.2,25.0,29.80,WNW,300,1.0,18.0,37,0.00,,,0.00,meteohub,2013-03-27 16:07:00,
2013-03-27 12:12:00,50.5,25.2,29.81,WNW,288,6.0,18.0,37,0.00,,,0.00,meteohub,2013-03-27 16:12:00,
2013-03-27 12:17:00,50.4,25.0,29.80,West,278,0.0,18.0,37,0.00,,,0.00,meteohub,2013-03-27 16:17:00,
2013-03-27 12:22:00,50.9,24.8,29.80,WNW,298,10.0,16.0,36,0.00,,,0.00,meteohub,2013-03-27 16:22:00,
2013-03-27 12:27:00,50.7,24.8,29.80,West,277,7.0,16.0,36,0.00,,,0.00,meteohub,2013-03-27 16:27:00,
2013-03-27 12:32:00,51.1,25.7,29.80,West,260,9.0,14.0,37,0.00,,,0.00,meteohub,2013-03-27 16:32:00,
2013-03-27 12:37:00,50.9,24.8,29.80,WNW,301,9.0,16.0,36,0.00,,,0.00,meteohub,2013-03-27 16:37:00,
2013-03-27 12:42:00,51.3,25.9,29.80,WNW,295,12.0,17.0,37,0.00,,,0.00,meteohub,2013-03-27 16:42:00,
2013-03-27 12:47:00,51.1,25.7,29.79,WNW,298,4.0,17.0,37,0.00,,,0.00,meteohub,2013-03-27 16:47:00,
2013-03-27 12:52:00,50.7,24.1,29.79,WNW,288,15.0,17.0,35,0.00,,,0.00,meteohub,2013-03-27 16:52:00,
2013-03-27 12:57:00,51.1,24.4,29.79,WNW,295,4.0,24.0,35,0.00,,,0.00,meteohub,2013-03-27 16:57:00,
2013-03-27 13:02:00,51.6,24.8,29.79,NNW,338,3.0,24.0,35,0.00,,,0.00,meteohub,2013-03-27 17:02:00,
2013-03-27 13:07:00,52.2,24.6,29.79,WNW,294,6.0,24.0,34,0.00,,,0.00,meteohub,2013-03-27 17:07:00,
2013-03-27 13:12:00,52.2,24.6,29.78,NNW,336,15.0,15.0,34,0.00,,,0.00,meteohub,2013-03-27 17:12:00,
2013-03-27 13:17:00,52.2,23.9,29.78,WNW,296,5.0,18.0,33,0.00,,,0.00,meteohub,2013-03-27 17:17:00,
2013-03-27 13:22:00,52.2,24.6,29.78,NNE,29,5.0,18.0,34,0.00,,,0.00,meteohub,2013-03-27 17:22:00,
2013-03-27 13:27:00,52.5,23.5,29.78,NW,319,11.0,18.0,32,0.00,,,0.00,meteohub,2013-03-27 17:27:00,
2013-03-27 13:32:00,52.0,23.0,29.78,WNW,283,6.0,19.0,32,0.00,,,0.00,meteohub,2013-03-27 17:32:00,
2013-03-27 13:37:00,51.8,23.5,29.78,WNW,291,8.0,19.0,33,0.00,,,0.00,meteohub,2013-03-27 17:37:00,
2013-03-27 13:42:00,52.3,24.1,29.78,NW,313,7.0,19.0,33,0.00,,,0.00,meteohub,2013-03-27 17:42:00,
2013-03-27 13:47:00,52.3,22.6,29.78,NNW,342,7.0,19.0,31,0.00,,,0.00,meteohub,2013-03-27 17:47:00,
2013-03-27 13:52:00,52.3,23.4,29.78,NW,308,4.0,20.0,32,0.00,,,0.00,meteohub,2013-03-27 17:52:00,
2013-03-27 13:57:00,52.3,23.4,29.78,WNW,298,12.0,20.0,32,0.00,,,0.00,meteohub,2013-03-27 17:57:00,
2013-03-27 14:03:00,51.6,22.6,29.78,WNW,283,4.0,21.0,32,0.00,,,0.00,meteohub,2013-03-27 18:03:00,
2013-03-27 14:08:00,51.6,23.4,29.78,NW,313,9.0,21.0,33,0.00,,,0.00,meteohub,2013-03-27 18:08:00,
2013-03-27 14:13:00,51.3,23.9,29.78,WNW,297,13.0,21.0,34,0.00,,,0.00,meteohub,2013-03-27 18:13:00,
2013-03-27 14:18:00,51.4,24.6,29.78,NW,309,7.0,16.0,35,0.00,,,0.00,meteohub,2013-03-27 18:18:00,
2013-03-27 14:23:00,51.6,22.6,29.78,NW,304,12.0,16.0,32,0.00,,,0.00,meteohub,2013-03-27 18:23:00,
2013-03-27 14:28:00,51.6,22.6,29.78,WNW,293,7.0,16.0,32,0.00,,,0.00,meteohub,2013-03-27 18:28:00,
2013-03-27 14:33:00,51.6,23.4,29.78,WNW,285,14.0,15.0,33,0.00,,,0.00,meteohub,2013-03-27 18:33:00,
2013-03-27 14:38:00,51.6,24.1,29.78,NW,305,8.0,17.0,34,0.00,,,0.00,meteohub,2013-03-27 18:38:00,
2013-03-27 14:43:00,51.4,23.4,29.77,NW,312,9.0,17.0,33,0.00,,,0.00,meteohub,2013-03-27 18:43:00,
2013-03-27 14:48:00,51.6,23.4,29.77,NW,307,8.0,17.0,33,0.00,,,0.00,meteohub,2013-03-27 18:48:00,
2013-03-27 14:53:00,51.6,23.4,29.77,NNW,337,6.0,13.0,33,0.00,,,0.00,meteohub,2013-03-27 18:53:00,
2013-03-27 14:58:00,52.0,23.7,29.77,NNW,336,7.0,13.0,33,0.00,,,0.00,meteohub,2013-03-27 18:58:00,
2013-03-27 15:03:00,52.2,23.9,29.77,NNW,328,10.0,16.0,33,0.00,,,0.00,meteohub,2013-03-27 19:03:00,
2013-03-27 15:08:00,52.3,24.1,29.77,WNW,283,5.0,16.0,33,0.00,,,0.00,meteohub,2013-03-27 19:08:00,
2013-03-27 15:13:00,52.5,23.5,29.77,WNW,299,7.0,16.0,32,0.00,,,0.00,meteohub,2013-03-27 19:13:00,
2013-03-27 15:18:00,52.2,23.2,29.77,NW,324,8.0,16.0,32,0.00,,,0.00,meteohub,2013-03-27 19:18:00,
2013-03-27 15:23:00,52.0,24.4,29.77,NNW,333,7.0,16.0,34,0.00,,,0.00,meteohub,2013-03-27 19:23:00,
2013-03-27 15:28:00,51.4,24.6,29.77,NW,312,13.0,16.0,35,0.00,,,0.00,meteohub,2013-03-27 19:28:00,
2013-03-27 15:33:00,51.4,24.6,29.77,WNW,295,9.0,16.0,35,0.00,,,0.00,meteohub,2013-03-27 19:33:00,
2013-03-27 15:38:00,51.3,25.2,29.77,North,350,4.0,17.0,36,0.00,,,0.00,meteohub,2013-03-27 19:38:00,
2013-03-27 15:43:00,51.4,25.3,29.77,West,276,9.0,17.0,36,0.00,,,0.00,meteohub,2013-03-27 19:43:00,
2013-03-27 15:48:00,51.4,25.3,29.77,NW,305,9.0,17.0,36,0.00,,,0.00,meteohub,2013-03-27 19:48:00,
2013-03-27 15:53:00,51.8,25.7,29.77,NW,321,7.0,13.0,36,0.00,,,0.00,meteohub,2013-03-27 19:53:00,
2013-03-27 15:58:00,51.6,24.8,29.77,WNW,296,6.0,13.0,35,0.00,,,0.00,meteohub,2013-03-27 19:58:00,
2013-03-27 16:03:00,51.6,24.8,29.77,WNW,293,7.0,12.0,35,0.00,,,0.00,meteohub,2013-03-27 20:03:00,
2013-03-27 16:08:00,51.6,24.8,29.77,NNW,327,6.0,13.0,35,0.00,,,0.00,meteohub,2013-03-27 20:08:00,
2013-03-27 16:13:00,52.2,25.3,29.78,NW,321,11.0,13.0,35,0.00,,,0.00,meteohub,2013-03-27 20:13:00,
2013-03-27 16:18:00,52.0,25.2,29.78,NNW,333,19.0,19.0,35,0.00,,,0.00,meteohub,2013-03-27 20:18:00,
2013-03-27 16:23:00,51.8,25.0,29.78,NNE,19,11.0,23.0,35,0.00,,,0.00,meteohub,2013-03-27 20:23:00,
2013-03-27 16:28:00,51.8,25.0,29.78,WNW,293,12.0,23.0,35,0.00,,,0.00,meteohub,2013-03-27 20:28:00,
2013-03-27 16:33:00,51.6,24.8,29.78,NW,309,9.0,23.0,35,0.00,,,0.00,meteohub,2013-03-27 20:33:00,
2013-03-27 16:38:00,51.4,25.3,29.78,NW,307,11.0,18.0,36,0.00,,,0.00,meteohub,2013-03-27 20:38:00,
2013-03-27 16:43:00,51.3,26.6,29.78,NW,324,13.0,18.0,38,0.00,,,0.00,meteohub,2013-03-27 20:43:00,
2013-03-27 16:48:00,50.5,27.7,29.79,NW,308,18.0,21.0,41,0.00,,,0.00,meteohub,2013-03-27 20:48:00,
2013-03-27 16:53:00,50.4,27.0,29.79,NW,308,19.0,21.0,40,0.00,,,0.00,meteohub,2013-03-27 20:53:00,
2013-03-27 16:58:00,50.2,26.2,29.79,NNW,340,15.0,21.0,39,0.00,,,0.00,meteohub,2013-03-27 20:58:00,
2013-03-27 17:03:00,50.4,26.4,29.79,NW,314,12.0,21.0,39,0.00,,,0.00,meteohub,2013-03-27 21:03:00,
2013-03-27 17:08:00,50.2,26.2,29.79,NW,325,14.0,21.0,39,0.00,,,0.00,meteohub,2013-03-27 21:08:00,
2013-03-27 17:13:00,50.2,26.8,29.79,WNW,293,3.0,21.0,40,0.00,,,0.00,meteohub,2013-03-27 21:13:00,
2013-03-27 17:18:00,50.4,26.4,29.79,NNW,328,7.0,21.0,39,0.00,,,0.00,meteohub,2013-03-27 21:18:00,
2013-03-27 17:23:00,50.5,26.4,29.79,NNW,335,13.0,21.0,39,0.00,,,0.00,meteohub,2013-03-27 21:23:00,
2013-03-27 17:29:00,50.5,26.4,29.80,NNW,339,12.0,19.0,39,0.00,,,0.00,meteohub,2013-03-27 21:29:00,
2013-03-27 17:34:00,50.5,26.4,29.80,NW,318,6.0,19.0,39,0.00,,,0.00,meteohub,2013-03-27 21:34:00,
2013-03-27 17:39:00,50.5,26.4,29.80,NNW,328,10.0,19.0,39,0.00,,,0.00,meteohub,2013-03-27 21:39:00,
2013-03-27 17:44:00,50.5,25.9,29.80,NW,315,9.0,18.0,38,0.00,,,0.00,meteohub,2013-03-27 21:44:00,
2013-03-27 17:49:00,50.5,26.4,29.80,NW,320,4.0,17.0,39,0.00,,,0.00,meteohub,2013-03-27 21:49:00,
2013-03-27 17:54:00,50.4,25.7,29.81,NNW,338,12.0,17.0,38,0.00,,,0.00,meteohub,2013-03-27 21:54:00,
2013-03-27 17:59:00,50.4,26.4,29.81,NW,322,14.0,17.0,39,0.00,,,0.00,meteohub,2013-03-27 21:59:00,
2013-03-27 18:04:00,50.4,26.4,29.81,NNW,337,6.0,18.0,39,0.00,,,0.00,meteohub,2013-03-27 22:04:00,
2013-03-27 18:09:00,50.4,26.4,29.81,NNW,330,11.0,18.0,39,0.00,,,0.00,meteohub,2013-03-27 22:09:00,
2013-03-27 18:14:00,50.2,26.2,29.81,NW,322,6.0,18.0,39,0.00,,,0.00,meteohub,2013-03-27 22:14:00,
2013-03-27 18:19:00,50.2,26.2,29.81,NW,311,5.0,18.0,39,0.00,,,0.00,meteohub,2013-03-27 22:19:00,
2013-03-27 18:24:00,50.0,26.6,29.81,NW,321,5.0,18.0,40,0.00,,,0.00,meteohub,2013-03-27 22:24:00,
2013-03-27 18:29:00,49.8,26.4,29.81,NW,312,14.0,15.0,40,0.00,,,0.00,meteohub,2013-03-27 22:29:00,
2013-03-27 18:34:00,49.8,26.4,29.81,WNW,295,8.0,18.0,40,0.00,,,0.00,meteohub,2013-03-27 22:34:00,
2013-03-27 18:39:00,49.6,25.7,29.81,WNW,302,13.0,18.0,39,0.00,,,0.00,meteohub,2013-03-27 22:39:00,
2013-03-27 18:44:00,49.8,26.4,29.82,NW,308,9.0,19.0,40,0.00,,,0.00,meteohub,2013-03-27 22:44:00,
2013-03-27 18:49:00,49.6,26.2,29.82,NNW,335,11.0,19.0,40,0.00,,,0.00,meteohub,2013-03-27 22:49:00,
2013-03-27 18:54:00,49.6,26.2,29.82,NW,304,3.0,19.0,40,0.00,,,0.00,meteohub,2013-03-27 22:54:00,
2013-03-27 18:59:00,49.5,26.1,29.82,NNW,339,8.0,18.0,40,0.00,,,0.00,meteohub,2013-03-27 22:59:00,
2013-03-27 19:04:00,49.3,26.1,29.83,NW,325,9.0,18.0,40,0.00,,,0.00,meteohub,2013-03-27 23:04:00,
2013-03-27 19:09:00,49.3,26.6,29.83,NW,308,3.0,18.0,41,0.00,,,0.00,meteohub,2013-03-27 23:09:00,
2013-03-27 19:14:00,49.1,26.4,29.83,NW,315,5.0,16.0,41,0.00,,,0.00,meteohub,2013-03-27 23:14:00,
2013-03-27 19:19:00,48.9,26.8,29.83,NW,315,4.0,14.0,42,0.00,,,0.00,meteohub,2013-03-27 23:19:00,
2013-03-27 19:24:00,48.7,26.6,29.83,NW,315,6.0,13.0,42,0.00,,,0.00,meteohub,2013-03-27 23:24:00,
2013-03-27 19:29:00,48.7,27.3,29.83,NW,308,6.0,12.0,43,0.00,,,0.00,meteohub,2013-03-27 23:29:00,
2013-03-27 19:34:00,48.6,27.1,29.83,NW,318,4.0,10.0,43,0.00,,,0.00,meteohub,2013-03-27 23:34:00,
2013-03-27 19:39:00,48.4,27.0,29.83,WNW,302,8.0,12.0,43,0.00,,,0.00,meteohub,2013-03-27 23:39:00,
2013-03-27 19:44:00,48.4,27.5,29.83,WNW,288,6.0,12.0,44,0.00,,,0.00,meteohub,2013-03-27 23:44:00,
2013-03-27 19:49:00,48.2,27.3,29.84,NW,316,3.0,15.0,44,0.00,,,0.00,meteohub,2013-03-27 23:49:00,
2013-03-27 19:54:00,48.0,27.7,29.84,NW,311,5.0,15.0,45,0.00,,,0.00,meteohub,2013-03-27 23:54:00,
2013-03-27 19:59:00,47.8,27.5,29.84,NNW,330,4.0,9.0,45,0.00,,,0.00,meteohub,2013-03-27 23:59:00,
2013-03-27 20:04:00,47.7,27.3,29.84,WNW,300,10.0,11.0,45,0.00,,,0.00,meteohub,2013-03-28 00:04:00,
2013-03-27 20:09:00,47.7,27.3,29.85,NNW,342,7.0,11.0,45,0.00,,,0.00,meteohub,2013-03-28 00:09:00,
2013-03-27 20:14:00,47.7,27.3,29.85,NW,325,6.0,13.0,45,0.00,,,0.00,meteohub,2013-03-28 00:14:00,
2013-03-27 20:20:00,47.5,28.2,29.85,NW,318,11.0,13.0,47,0.00,,,0.00,meteohub,2013-03-28 00:20:00,
2013-03-27 20:24:00,47.3,28.6,29.86,WNW,302,9.0,19.0,48,0.00,,,0.00,meteohub,2013-03-28 00:24:00,
2013-03-27 20:29:00,46.9,29.3,29.86,NNW,347,8.0,19.0,50,0.00,,,0.00,meteohub,2013-03-28 00:29:00,
2013-03-27 20:34:00,46.8,30.0,29.86,NW,311,7.0,19.0,52,0.00,,,0.00,meteohub,2013-03-28 00:34:00,
2013-03-27 20:40:00,46.6,30.4,29.86,NW,309,8.0,18.0,53,0.00,,,0.00,meteohub,2013-03-28 00:40:00,
2013-03-27 20:45:00,46.4,30.7,29.86,NNW,336,7.0,18.0,54,0.00,,,0.00,meteohub,2013-03-28 00:45:00,
2013-03-27 20:50:00,46.2,30.6,29.86,NW,315,5.0,14.0,54,0.00,,,0.00,meteohub,2013-03-28 00:50:00,
2013-03-27 20:55:00,46.0,30.7,29.86,NW,316,6.0,10.0,55,0.00,,,0.00,meteohub,2013-03-28 00:55:00,
2013-03-27 21:00:00,45.9,30.6,29.86,NW,310,7.0,10.0,55,0.00,,,0.00,meteohub,2013-03-28 01:00:00,
2013-03-27 21:05:00,45.7,30.4,29.86,NW,318,10.0,10.0,55,0.00,,,0.00,meteohub,2013-03-28 01:05:00,
2013-03-27 21:10:00,45.7,30.4,29.87,NNW,328,4.0,12.0,55,0.00,,,0.00,meteohub,2013-03-28 01:10:00,
2013-03-27 21:15:00,45.7,30.9,29.87,NW,310,4.0,12.0,56,0.00,,,0.00,meteohub,2013-03-28 01:15:00,
2013-03-27 21:20:00,45.7,30.4,29.87,WNW,302,4.0,12.0,55,0.00,,,0.00,meteohub,2013-03-28 01:20:00,
2013-03-27 21:25:00,45.5,30.7,29.87,NNW,348,6.0,11.0,56,0.00,,,0.00,meteohub,2013-03-28 01:25:00,
2013-03-27 21:30:00,45.5,30.7,29.87,NW,316,7.0,11.0,56,0.00,,,0.00,meteohub,2013-03-28 01:30:00,
2013-03-27 21:35:00,45.3,30.9,29.87,NNW,336,6.0,11.0,57,0.00,,,0.00,meteohub,2013-03-28 01:35:00,
2013-03-27 21:40:00,45.1,30.7,29.87,WNW,294,2.0,12.0,57,0.00,,,0.00,meteohub,2013-03-28 01:40:00,
2013-03-27 21:45:00,45.0,31.1,29.87,WNW,295,5.0,12.0,58,0.00,,,0.00,meteohub,2013-03-28 01:45:00,
2013-03-27 21:50:00,44.8,30.9,29.87,NW,304,8.0,12.0,58,0.00,,,0.00,meteohub,2013-03-28 01:50:00,
2013-03-27 21:55:00,44.6,31.1,29.88,NNE,13,3.0,10.0,59,0.00,,,0.00,meteohub,2013-03-28 01:55:00,
2013-03-27 22:00:00,44.4,30.9,29.88,NW,308,3.0,10.0,59,0.00,,,0.00,meteohub,2013-03-28 02:00:00,
2013-03-27 22:05:00,44.2,31.3,29.88,WNW,300,5.0,9.0,60,0.00,,,0.00,meteohub,2013-03-28 02:05:00,
2013-03-27 22:10:00,44.1,31.1,29.88,WNW,299,5.0,9.0,60,0.00,,,0.00,meteohub,2013-03-28 02:10:00,
2013-03-27 22:15:00,43.9,30.9,29.88,NW,305,8.0,8.0,60,0.00,,,0.00,meteohub,2013-03-28 02:15:00,
2013-03-27 22:20:00,43.9,30.9,29.88,NW,316,6.0,9.0,60,0.00,,,0.00,meteohub,2013-03-28 02:20:00,
2013-03-27 22:25:00,43.9,30.9,29.88,NW,321,4.0,11.0,60,0.00,,,0.00,meteohub,2013-03-28 02:25:00,
2013-03-27 22:30:00,43.9,30.9,29.88,West,278,2.0,11.0,60,0.00,,,0.00,meteohub,2013-03-28 02:30:00,
2013-03-27 22:35:00,43.9,30.9,29.88,NW,308,6.0,12.0,60,0.00,,,0.00,meteohub,2013-03-28 02:35:00,
2013-03-27 22:40:00,44.1,31.1,29.88,NNW,343,4.0,12.0,60,0.00,,,0.00,meteohub,2013-03-28 02:40:00,
2013-03-27 22:45:00,44.1,31.1,29.88,NW,319,6.0,12.0,60,0.00,,,0.00,meteohub,2013-03-28 02:45:00,
2013-03-27 22:50:00,44.1,31.1,29.88,West,281,3.0,12.0,60,0.00,,,0.00,meteohub,2013-03-28 02:50:00,
2013-03-27 22:55:00,44.1,31.1,29.88,WNW,298,4.0,12.0,60,0.00,,,0.00,meteohub,2013-03-28 02:55:00,
2013-03-27 23:00:00,43.9,30.9,29.88,NW,304,12.0,13.0,60,0.00,,,0.00,meteohub,2013-03-28 03:00:00,
2013-03-27 23:05:00,43.7,30.7,29.88,NW,311,4.0,13.0,60,0.00,,,0.00,meteohub,2013-03-28 03:05:00,
2013-03-27 23:10:00,43.5,30.6,29.88,NNW,328,6.0,13.0,60,0.00,,,0.00,meteohub,2013-03-28 03:10:00,
2013-03-27 23:15:00,43.5,30.6,29.88,NW,311,7.0,13.0,60,0.00,,,0.00,meteohub,2013-03-28 03:15:00,
2013-03-27 23:20:00,43.3,30.7,29.88,WNW,295,7.0,13.0,61,0.00,,,0.00,meteohub,2013-03-28 03:20:00,
2013-03-27 23:25:00,43.2,30.6,29.88,NNW,336,3.0,13.0,61,0.00,,,0.00,meteohub,2013-03-28 03:25:00,
2013-03-27 23:30:00,43.2,30.6,29.88,WNW,293,7.0,13.0,61,0.00,,,0.00,meteohub,2013-03-28 03:30:00,
2013-03-27 23:35:00,43.0,30.4,29.88,NW,324,6.0,13.0,61,0.00,,,0.00,meteohub,2013-03-28 03:35:00,
2013-03-27 23:40:00,43.2,30.6,29.88,NW,312,7.0,11.0,61,0.00,,,0.00,meteohub,2013-03-28 03:40:00,
2013-03-27 23:46:00,43.2,31.1,29.88,WNW,298,6.0,14.0,62,0.00,,,0.00,meteohub,2013-03-28 03:46:00,
2013-03-27 23:51:00,43.2,31.1,29.88,NW,323,6.0,14.0,62,0.00,,,0.00,meteohub,2013-03-28 03:51:00,
2013-03-27 23:56:00,43.2,31.1,29.88,NNW,330,8.0,14.0,62,0.00,,,0.00,meteohub,2013-03-28 03:56:00,